Decoded Metar for KSRQ (SARASOTA/BRADENT in FL, USA) (IATA:SRQ) | Meteo·Mobile Aviation Weather
aviador You're here:

KSRQ Decoded Metar

SARASOTA/BRADENT in FL, USA
Report Time2018-10-22 12:53:00
UTC Time2018-10-22 13:53:17
Flight Rules vfr VFR
Wind070° at 12 kt
W.Decomp.*RWY 04: 9.8 kt HW 6.9 kt RCW
RWY 14: 5.1 kt HW 10.9 kt LCW
W.Rank070° ranks 2
Current wind is above 070° avg. (6.6)
Visibility9999 m
Phenomena:N/A
Clouds:N/A
Expected CloudBase > 1,600 ft AGL from Temp-Dew spread
CeilingNone
Temp21°C (ISA +6)
Dew Point17°C (78% RH)
AAT19.1°C
QNH1020 hPa
Density Alt794 ft
Elevation59 ft
Report Wrong Elevation
Raw Report
METAR KSRQ 221253Z 07012KT 10SM CLR 21/17 A3012 RMK AO2 SLP197 T02060172=

Extra information for KSRQ:More info

Metar Taf Metar & Taf Last 4 Metars F.Rules Stats Wind Profile Meteogram Temp Stats Airport Information Weather charts Add Link Nearby VenuesMetar ALERT Operation Metar Decoded Social comments

AIRNAV info for KSRQ